createdAt,value
2019-02-21T00:01:47.661Z,8.93
2019-02-21T00:04:16.149Z,8.92
2019-02-21T00:06:44.632Z,8.91
2019-02-21T00:09:13.185Z,8.89
2019-02-21T00:11:41.565Z,8.88
2019-02-21T00:14:09.973Z,8.88
2019-02-21T00:16:38.380Z,8.88
2019-02-21T00:19:06.808Z,8.88
2019-02-21T00:21:35.460Z,8.86
2019-02-21T00:24:03.879Z,8.85
2019-02-21T00:26:32.314Z,8.85
2019-02-21T00:29:01.042Z,8.83
2019-02-21T00:31:29.422Z,8.83
2019-02-21T00:33:58.081Z,8.84
2019-02-21T00:36:26.499Z,8.82
2019-02-21T00:38:54.914Z,8.83
2019-02-21T00:41:23.621Z,8.82
2019-02-21T00:43:52.012Z,8.83
2019-02-21T00:46:20.421Z,8.83
2019-02-21T00:48:49.076Z,8.85
2019-02-21T00:51:17.532Z,8.87
2019-02-21T00:53:46.192Z,8.87
2019-02-21T00:56:14.625Z,8.88
2019-02-21T00:58:43.293Z,8.89
2019-02-21T01:01:11.713Z,8.90
2019-02-21T01:03:40.120Z,8.91
2019-02-21T01:06:08.539Z,8.91
2019-02-21T01:08:37.192Z,8.91
2019-02-21T01:11:06.113Z,8.91
2019-02-21T01:13:34.516Z,8.92
2019-02-21T01:16:02.951Z,8.94
2019-02-21T01:18:31.354Z,8.95
2019-02-21T01:20:59.774Z,8.95
2019-02-21T01:23:28.217Z,8.95
2019-02-21T01:25:56.613Z,8.95
2019-02-21T01:28:25.021Z,8.96
2019-02-21T01:30:57.083Z,8.96
2019-02-21T01:33:24.089Z,8.97
2019-02-21T01:35:52.499Z,8.97
2019-02-21T01:38:20.982Z,8.98
2019-02-21T01:40:49.383Z,8.99
2019-02-21T01:43:18.109Z,8.99
2019-02-21T01:45:46.795Z,8.99
2019-02-21T01:48:15.473Z,8.98
2019-02-21T01:50:43.887Z,9.00
2019-02-21T01:53:12.307Z,8.99
2019-02-21T01:55:40.710Z,9.00
2019-02-21T01:58:09.699Z,9.00
2019-02-21T02:00:39.679Z,8.99
2019-02-21T02:03:08.395Z,8.99
2019-02-21T02:05:37.058Z,8.96
2019-02-21T02:08:05.462Z,8.96
2019-02-21T02:10:33.863Z,8.97
2019-02-21T02:13:02.289Z,8.98
2019-02-21T02:15:30.711Z,8.99
2019-02-21T02:17:59.124Z,9.00
2019-02-21T02:20:27.528Z,9.01
2019-02-21T02:22:56.191Z,9.03
2019-02-21T02:25:24.843Z,9.02
2019-02-21T02:27:53.256Z,9.03
2019-02-21T02:30:22.003Z,9.03
2019-02-21T02:32:50.421Z,9.01
2019-02-21T02:35:18.824Z,9.02
2019-02-21T02:37:47.246Z,9.02
2019-02-21T02:40:15.917Z,9.01
2019-02-21T02:42:44.343Z,9.00
2019-02-21T02:45:12.827Z,9.00
2019-02-21T02:47:41.300Z,9.00
2019-02-21T02:50:10.094Z,9.00
2019-02-21T02:52:38.586Z,8.99
2019-02-21T02:55:07.166Z,8.99
2019-02-21T02:57:35.630Z,8.99
2019-02-21T03:00:06.431Z,8.99
2019-02-21T03:02:34.845Z,9.00
2019-02-21T03:05:03.260Z,9.00
2019-02-21T03:07:31.664Z,9.00
2019-02-21T03:10:00.137Z,8.99
2019-02-21T03:12:28.672Z,8.99
2019-02-21T03:14:57.089Z,8.99
2019-02-21T03:17:25.754Z,9.01
2019-02-21T03:19:54.159Z,9.01
2019-02-21T03:22:22.599Z,9.02
2019-02-21T03:24:51.063Z,9.02
2019-02-21T03:27:19.861Z,9.01
2019-02-21T03:29:48.266Z,9.02
2019-02-21T03:32:16.703Z,9.00
2019-02-21T03:34:45.508Z,8.98
2019-02-21T03:37:14.103Z,8.96
2019-02-21T03:39:42.515Z,8.94
2019-02-21T03:42:11.020Z,8.93
2019-02-21T03:44:39.422Z,8.93
2019-02-21T03:47:08.098Z,8.92
2019-02-21T03:49:36.755Z,8.90
2019-02-21T03:52:05.178Z,8.88
2019-02-21T03:54:33.856Z,8.88
2019-02-21T03:57:02.266Z,8.84
2019-02-21T03:59:30.677Z,8.82
2019-02-21T04:02:05.415Z,8.81
2019-02-21T04:04:29.641Z,8.80
2019-02-21T04:06:58.058Z,8.78
2019-02-21T04:09:26.459Z,8.76
2019-02-21T04:11:54.872Z,8.73
2019-02-21T04:14:23.291Z,8.70
2019-02-21T04:16:51.715Z,8.68
2019-02-21T04:19:20.115Z,8.68
2019-02-21T04:21:48.517Z,8.65
2019-02-21T04:24:16.938Z,8.65
2019-02-21T04:26:45.345Z,8.63
2019-02-21T04:29:13.771Z,8.62
2019-02-21T04:31:42.185Z,8.61
2019-02-21T04:34:10.609Z,8.61
2019-02-21T04:36:39.014Z,8.61
2019-02-21T04:39:07.436Z,8.60
2019-02-21T04:41:36.226Z,8.60
2019-02-21T04:44:04.703Z,8.59
2019-02-21T04:46:33.072Z,8.59
2019-02-21T04:49:01.483Z,8.58
2019-02-21T04:51:29.905Z,8.56
2019-02-21T04:53:58.319Z,8.54
2019-02-21T04:56:27.013Z,8.51
2019-02-21T04:58:55.453Z,8.49
2019-02-21T05:01:23.842Z,8.45
2019-02-21T05:03:52.238Z,8.42
2019-02-21T05:06:20.947Z,8.40
2019-02-21T05:08:49.352Z,8.37
2019-02-21T05:11:17.779Z,8.34
2019-02-21T05:13:46.487Z,8.29
2019-02-21T05:16:15.206Z,8.25
2019-02-21T05:18:43.967Z,8.23
2019-02-21T05:21:12.377Z,8.22
2019-02-21T05:23:40.783Z,8.23
2019-02-21T05:26:11.113Z,8.25
2019-02-21T05:28:41.248Z,8.26
2019-02-21T05:31:11.789Z,8.27
2019-02-21T05:33:56.841Z,8.28
2019-02-21T05:36:43.363Z,8.30
2019-02-21T05:39:25.357Z,8.32
2019-02-21T05:42:01.625Z,8.34
2019-02-21T05:44:33.637Z,8.35
2019-02-21T05:47:06.582Z,8.35
2019-02-21T05:49:39.667Z,8.36
2019-02-21T05:52:18.762Z,8.37
2019-02-21T05:54:48.819Z,8.37
2019-02-21T05:57:24.790Z,8.37
2019-02-21T06:00:11.395Z,8.37
2019-02-21T06:02:59.682Z,8.37
2019-02-21T06:05:35.699Z,8.36
2019-02-21T06:08:08.434Z,8.35
2019-02-21T06:10:44.043Z,8.36
2019-02-21T06:13:23.260Z,8.35
2019-02-21T06:15:55.775Z,8.37
2019-02-21T06:18:31.941Z,8.35
2019-02-21T06:21:16.944Z,8.34
2019-02-21T06:23:49.701Z,8.32
2019-02-21T06:26:19.758Z,8.32
2019-02-21T06:28:49.823Z,8.30
2019-02-21T06:31:18.229Z,8.28
2019-02-21T06:33:49.328Z,8.27
2019-02-21T06:36:16.792Z,8.27
2019-02-21T06:38:45.218Z,8.27
2019-02-21T06:41:13.619Z,8.28
2019-02-21T06:43:42.124Z,8.27
2019-02-21T06:46:10.543Z,8.24
2019-02-21T06:48:38.941Z,8.24
2019-02-21T06:51:07.366Z,8.24
2019-02-21T06:53:35.781Z,8.24
2019-02-21T06:56:04.178Z,8.24
2019-02-21T06:58:32.608Z,8.24
2019-02-21T07:01:01.026Z,8.24
2019-02-21T07:03:29.426Z,8.25
2019-02-21T07:05:58.115Z,8.24
2019-02-21T07:08:26.517Z,8.26
2019-02-21T07:11:05.439Z,8.25
2019-02-21T07:13:27.008Z,8.28
2019-02-21T07:15:55.635Z,8.29
2019-02-21T07:18:24.043Z,8.32
2019-02-21T07:20:52.787Z,8.35
2019-02-21T07:23:21.770Z,8.39
2019-02-21T07:25:51.362Z,8.45
2019-02-21T07:28:19.771Z,8.55
2019-02-21T07:30:49.071Z,8.62
2019-02-21T07:33:27.759Z,8.66
2019-02-21T07:35:48.019Z,8.67
2019-02-21T07:38:17.286Z,8.68
2019-02-21T07:40:45.841Z,8.69
2019-02-21T07:43:14.249Z,8.71
2019-02-21T07:45:42.669Z,8.72
2019-02-21T07:48:11.078Z,8.72
2019-02-21T07:50:39.498Z,8.72
2019-02-21T07:53:07.910Z,8.68
2019-02-21T07:55:36.330Z,8.67
2019-02-21T07:58:04.804Z,8.68
2019-02-21T08:00:33.218Z,8.68
2019-02-21T08:03:01.629Z,8.75
2019-02-21T08:05:30.051Z,8.79
2019-02-21T08:07:58.471Z,8.79
2019-02-21T08:10:33.487Z,8.77
2019-02-21T08:12:57.384Z,8.74
2019-02-21T08:15:27.760Z,8.71
2019-02-21T08:17:55.876Z,8.67
2019-02-21T08:20:33.645Z,8.65
2019-02-21T08:22:54.423Z,8.64
2019-02-21T08:25:22.831Z,8.61
2019-02-21T08:27:51.579Z,8.58
2019-02-21T08:30:19.977Z,8.56
2019-02-21T08:33:01.538Z,8.56
2019-02-21T08:35:31.235Z,8.56
2019-02-21T08:37:59.904Z,8.57
2019-02-21T08:40:28.330Z,8.61
2019-02-21T08:42:56.733Z,8.63
2019-02-21T08:45:25.208Z,8.66
2019-02-21T08:47:53.644Z,8.69
2019-02-21T08:50:22.529Z,8.72
2019-02-21T08:52:51.100Z,8.75
2019-02-21T08:55:19.905Z,8.79
2019-02-21T08:57:48.603Z,8.86
2019-02-21T09:00:17.361Z,8.95
2019-02-21T09:02:45.789Z,9.01
2019-02-21T09:05:14.431Z,9.06
2019-02-21T09:07:42.909Z,9.06
2019-02-21T09:10:12.669Z,9.09
2019-02-21T09:12:41.424Z,9.12
2019-02-21T09:15:15.211Z,9.13
2019-02-21T09:17:43.702Z,9.12
2019-02-21T09:20:12.911Z,9.14
2019-02-21T09:22:41.312Z,9.16
2019-02-21T09:25:11.669Z,9.16
2019-02-21T09:27:40.083Z,9.17
2019-02-21T09:30:13.827Z,9.16
2019-02-21T09:32:42.314Z,9.13
2019-02-21T09:35:10.745Z,9.11
2019-02-21T09:37:39.298Z,9.12
2019-02-21T09:40:10.830Z,9.20
2019-02-21T09:42:39.693Z,9.33
2019-02-21T09:45:10.926Z,9.50
2019-02-21T09:47:39.335Z,9.64
2019-02-21T09:50:09.383Z,9.75
2019-02-21T09:52:37.818Z,9.90
2019-02-21T09:55:09.523Z,10.03
2019-02-21T09:57:38.257Z,10.08
2019-02-21T10:00:13.069Z,10.09
2019-02-21T10:02:42.185Z,10.09
2019-02-21T10:05:10.749Z,10.07
2019-02-21T10:07:39.176Z,10.02
2019-02-21T10:10:10.635Z,10.01
2019-02-21T10:12:39.063Z,10.03
2019-02-21T10:15:10.130Z,10.06
2019-02-21T10:17:38.909Z,10.15
2019-02-21T10:20:12.851Z,10.21
2019-02-21T10:22:41.310Z,10.24
2019-02-21T10:25:13.053Z,10.28
2019-02-21T10:27:41.476Z,10.32
2019-02-21T10:30:13.503Z,10.32
2019-02-21T10:32:41.219Z,10.31
2019-02-21T10:35:09.781Z,10.30
2019-02-21T10:37:38.213Z,10.33
2019-02-21T10:40:12.335Z,10.34
2019-02-21T10:42:41.034Z,10.34
2019-02-21T10:45:15.186Z,10.39
2019-02-21T10:47:43.679Z,10.37
2019-02-21T10:50:17.227Z,10.37
2019-02-21T10:52:45.644Z,10.37
2019-02-21T10:55:14.815Z,10.35
2019-02-21T10:57:45.329Z,10.30
2019-02-21T11:00:16.288Z,10.25
2019-02-21T11:02:44.734Z,10.25
2019-02-21T11:05:13.481Z,10.25
2019-02-21T11:07:41.901Z,10.20
2019-02-21T11:10:12.852Z,10.12
2019-02-21T11:12:41.275Z,10.10
2019-02-21T11:15:14.678Z,10.11
2019-02-21T11:17:43.121Z,10.16
2019-02-21T11:20:14.155Z,10.22
2019-02-21T11:22:42.581Z,10.27
2019-02-21T11:25:12.034Z,10.29
2019-02-21T11:27:40.935Z,10.31
2019-02-21T11:30:14.456Z,10.33
2019-02-21T11:32:42.916Z,10.36
2019-02-21T11:35:11.471Z,10.41
2019-02-21T11:37:43.384Z,10.40
2019-02-21T11:40:12.560Z,10.34
2019-02-21T11:42:40.990Z,10.25
2019-02-21T11:45:17.399Z,10.20
2019-02-21T11:47:46.191Z,10.13
2019-02-21T11:50:17.232Z,10.10
2019-02-21T11:52:46.019Z,10.06
2019-02-21T11:55:22.467Z,10.06
2019-02-21T11:57:50.946Z,10.09
2019-02-21T12:00:24.442Z,10.13
2019-02-21T12:02:52.850Z,10.19
2019-02-21T12:05:30.688Z,10.18
2019-02-21T12:07:51.860Z,10.15
2019-02-21T12:10:20.313Z,10.11
2019-02-21T12:12:48.744Z,10.12
2019-02-21T12:15:17.644Z,10.12
2019-02-21T12:17:46.051Z,10.13
2019-02-21T12:20:18.546Z,10.17
2019-02-21T12:22:47.307Z,10.19
2019-02-21T12:25:21.495Z,10.20
2019-02-21T12:27:49.904Z,10.22
2019-02-21T12:30:20.344Z,10.25
2019-02-21T12:32:48.758Z,10.25
2019-02-21T12:35:28.779Z,10.28
2019-02-21T12:37:47.343Z,10.29
2019-02-21T12:40:20.064Z,10.29
2019-02-21T12:42:48.493Z,10.30
2019-02-21T12:45:21.186Z,10.29
2019-02-21T12:47:53.526Z,10.27
2019-02-21T12:50:19.753Z,10.27
2019-02-21T12:52:48.196Z,10.25
2019-02-21T12:55:27.177Z,10.24
2019-02-21T12:57:46.761Z,10.24
2019-02-21T13:00:19.943Z,10.22
2019-02-21T13:02:48.361Z,10.23
2019-02-21T13:05:16.765Z,10.22
2019-02-21T13:07:45.504Z,10.21
2019-02-21T13:10:21.693Z,10.19
2019-02-21T13:12:50.454Z,10.16
2019-02-21T13:15:18.887Z,10.14
2019-02-21T13:17:47.310Z,10.12
2019-02-21T13:20:15.996Z,10.11
2019-02-21T13:22:44.424Z,10.11
2019-02-21T13:25:17.158Z,10.12
2019-02-21T13:27:45.914Z,10.13
2019-02-21T13:30:19.269Z,10.12
2019-02-21T13:32:47.678Z,10.11
2019-02-21T13:35:16.476Z,10.07
2019-02-21T13:37:44.975Z,10.03
2019-02-21T13:40:16.974Z,10.03
2019-02-21T13:42:44.718Z,10.03
2019-02-21T13:45:17.386Z,10.03
2019-02-21T13:47:45.343Z,10.04
2019-02-21T13:50:17.834Z,10.08
2019-02-21T13:52:46.260Z,10.12
2019-02-21T13:55:14.678Z,10.13
2019-02-21T13:57:43.363Z,10.16
2019-02-21T14:00:20.444Z,10.15
2019-02-21T14:02:49.010Z,10.16
2019-02-21T14:05:17.743Z,10.13
2019-02-21T14:07:46.501Z,10.12
2019-02-21T14:10:15.356Z,10.11
2019-02-21T14:12:43.773Z,10.11
2019-02-21T14:15:18.096Z,10.08
2019-02-21T14:17:46.927Z,10.04
2019-02-21T14:20:15.898Z,9.99
2019-02-21T14:22:44.287Z,9.94
2019-02-21T14:25:12.707Z,9.88
2019-02-21T14:27:41.106Z,9.83
2019-02-21T14:30:19.427Z,9.79
2019-02-21T14:32:48.220Z,9.71
2019-02-21T14:35:17.032Z,9.65
2019-02-21T14:37:45.435Z,9.60
2019-02-21T14:40:15.389Z,9.58
2019-02-21T14:42:43.824Z,9.57
2019-02-21T14:45:15.043Z,9.56
2019-02-21T14:47:43.448Z,9.56
2019-02-21T14:50:12.642Z,9.55
2019-02-21T14:52:41.047Z,9.56
2019-02-21T14:55:11.807Z,9.57
2019-02-21T14:57:41.313Z,9.54
2019-02-21T15:00:21.584Z,9.53
2019-02-21T15:02:49.994Z,9.51
2019-02-21T15:05:19.255Z,9.48
2019-02-21T15:07:47.940Z,9.43
2019-02-21T15:10:16.482Z,9.40
2019-02-21T15:12:45.213Z,9.38
2019-02-21T15:15:16.715Z,9.36
2019-02-21T15:17:45.135Z,9.35
2019-02-21T15:20:15.618Z,9.35
2019-02-21T15:22:44.354Z,9.35
2019-02-21T15:25:13.045Z,9.34
2019-02-21T15:27:41.471Z,9.33
2019-02-21T15:30:18.274Z,9.32
2019-02-21T15:32:46.698Z,9.30
2019-02-21T15:35:15.290Z,9.30
2019-02-21T15:37:45.090Z,9.29
2019-02-21T15:40:14.176Z,9.29
2019-02-21T15:42:42.586Z,9.28
2019-02-21T15:45:23.347Z,9.29
2019-02-21T15:47:49.718Z,9.28
2019-02-21T15:50:19.910Z,9.28
2019-02-21T15:52:48.719Z,9.28
2019-02-21T15:55:18.461Z,9.28
2019-02-21T15:57:46.893Z,9.28
2019-02-21T16:00:20.144Z,9.27
2019-02-21T16:02:48.605Z,9.27
2019-02-21T16:05:17.312Z,9.25
2019-02-21T16:07:45.724Z,9.25
2019-02-21T16:10:20.058Z,9.23
2019-02-21T16:12:48.770Z,9.25
2019-02-21T16:15:18.176Z,9.24
2019-02-21T16:17:46.592Z,9.25
2019-02-21T16:20:16.681Z,9.25
2019-02-21T16:22:45.449Z,9.25
2019-02-21T16:25:28.079Z,9.25
2019-02-21T16:27:56.495Z,9.26
2019-02-21T16:30:24.900Z,9.26
2019-02-21T16:32:53.650Z,9.26
2019-02-21T16:35:22.051Z,9.26
2019-02-21T16:37:50.839Z,9.27
2019-02-21T16:40:20.785Z,9.27
2019-02-21T16:42:49.528Z,9.26
2019-02-21T16:45:21.919Z,9.25
2019-02-21T16:47:50.595Z,9.24
2019-02-21T16:50:29.309Z,9.24
2019-02-21T16:52:49.484Z,9.22
2019-02-21T16:55:20.052Z,9.22
2019-02-21T16:57:48.422Z,9.20
2019-02-21T17:00:22.597Z,9.18
2019-02-21T17:02:51.093Z,9.17
2019-02-21T17:05:19.825Z,9.15
2019-02-21T17:07:48.231Z,9.12
2019-02-21T17:10:17.299Z,9.09
2019-02-21T17:12:46.065Z,9.07
2019-02-21T17:15:16.386Z,9.07
2019-02-21T17:17:44.801Z,9.06
2019-02-21T17:20:18.306Z,9.03
2019-02-21T17:22:46.741Z,9.01
2019-02-21T17:25:15.977Z,8.98
2019-02-21T17:27:45.448Z,8.98
2019-02-21T17:30:18.040Z,8.96
2019-02-21T17:32:46.793Z,8.95
2019-02-21T17:35:15.641Z,8.93
2019-02-21T17:37:44.060Z,8.91
2019-02-21T17:40:15.554Z,8.90
2019-02-21T17:42:43.982Z,8.89
2019-02-21T17:45:13.141Z,8.88
2019-02-21T17:47:42.047Z,8.88
2019-02-21T17:50:13.464Z,8.87
2019-02-21T17:52:42.220Z,8.84
2019-02-21T17:55:11.470Z,8.84
2019-02-21T17:57:39.893Z,8.83
2019-02-21T18:00:21.603Z,8.82
2019-02-21T18:02:50.113Z,8.78
2019-02-21T18:05:18.520Z,8.77
2019-02-21T18:07:47.248Z,8.74
2019-02-21T18:10:16.949Z,8.75
2019-02-21T18:12:45.390Z,8.73
2019-02-21T18:15:15.367Z,8.73
2019-02-21T18:17:43.770Z,8.72
2019-02-21T18:20:14.352Z,8.72
2019-02-21T18:22:42.795Z,8.70
2019-02-21T18:25:29.298Z,8.69
2019-02-21T18:27:57.728Z,8.67
2019-02-21T18:30:26.130Z,8.67
2019-02-21T18:32:54.536Z,8.66
2019-02-21T18:35:23.049Z,8.65
2019-02-21T18:37:51.461Z,8.63
2019-02-21T18:40:22.460Z,8.60
2019-02-21T18:42:50.922Z,8.59
2019-02-21T18:45:19.417Z,8.57
2019-02-21T18:47:47.900Z,8.55
2019-02-21T18:50:16.318Z,8.55
2019-02-21T18:52:44.728Z,8.54
2019-02-21T18:55:13.483Z,8.53
2019-02-21T18:57:41.987Z,8.53
2019-02-21T19:00:19.467Z,8.51
2019-02-21T19:02:47.944Z,8.50
2019-02-21T19:05:16.416Z,8.51
2019-02-21T19:07:45.093Z,8.51
2019-02-21T19:10:16.901Z,8.51
2019-02-21T19:12:45.308Z,8.51
2019-02-21T19:15:15.373Z,8.50
2019-02-21T19:17:43.883Z,8.50
2019-02-21T19:20:17.126Z,8.52
2019-02-21T19:23:04.867Z,8.50
2019-02-21T19:25:33.553Z,8.49
2019-02-21T19:28:02.865Z,8.47
2019-02-21T19:30:40.696Z,8.47
2019-02-21T19:33:09.291Z,8.44
2019-02-21T19:35:37.718Z,8.44
2019-02-21T19:38:10.785Z,8.45
2019-02-21T19:40:39.026Z,8.45
2019-02-21T19:43:07.435Z,8.46
2019-02-21T19:45:35.855Z,8.45
2019-02-21T19:48:04.484Z,8.43
2019-02-21T19:50:33.369Z,8.42
2019-02-21T19:53:01.955Z,8.41
2019-02-21T19:55:30.896Z,8.40
2019-02-21T19:57:59.606Z,8.41
2019-02-21T20:00:30.226Z,8.40
2019-02-21T20:02:58.658Z,8.40
2019-02-21T20:05:27.521Z,8.38
2019-02-21T20:07:56.320Z,8.38
2019-02-21T20:10:25.300Z,8.37
2019-02-21T20:12:54.698Z,8.35
2019-02-21T20:15:24.088Z,8.36
2019-02-21T20:17:52.535Z,8.34
2019-02-21T20:20:28.851Z,8.34
2019-02-21T20:22:57.280Z,8.31
2019-02-21T20:25:25.707Z,8.28
2019-02-21T20:27:54.538Z,8.27
2019-02-21T20:30:23.499Z,8.26
2019-02-21T20:32:52.119Z,8.24
2019-02-21T20:35:22.593Z,8.23
2019-02-21T20:37:51.012Z,8.22
2019-02-21T20:40:19.776Z,8.22
2019-02-21T20:42:48.176Z,8.21
2019-02-21T20:45:16.664Z,8.21
2019-02-21T20:47:46.001Z,8.20
2019-02-21T20:50:14.699Z,8.18
2019-02-21T20:52:43.133Z,8.19
2019-02-21T20:55:12.222Z,8.19
2019-02-21T20:57:41.017Z,8.20
2019-02-21T21:00:13.825Z,8.18
2019-02-21T21:02:43.279Z,8.18
2019-02-21T21:05:15.009Z,8.17
2019-02-21T21:07:43.889Z,8.14
2019-02-21T21:10:15.278Z,8.13
2019-02-21T21:12:44.067Z,8.11
2019-02-21T21:15:14.028Z,8.12
2019-02-21T21:17:42.565Z,8.12
2019-02-21T21:20:17.383Z,8.12
2019-02-21T21:22:46.097Z,8.12
2019-02-21T21:25:15.981Z,8.12
2019-02-21T21:27:44.386Z,8.13
2019-02-21T21:30:14.656Z,8.13
2019-02-21T21:32:43.342Z,8.13
2019-02-21T21:35:11.836Z,8.13
2019-02-21T21:37:40.335Z,8.12
2019-02-21T21:40:15.368Z,8.13
2019-02-21T21:42:43.855Z,8.11
2019-02-21T21:45:16.807Z,8.10
2019-02-21T21:47:45.250Z,8.09
2019-02-21T21:50:18.562Z,8.09
2019-02-21T21:52:47.017Z,8.11
2019-02-21T21:55:15.501Z,8.07
2019-02-21T21:57:44.010Z,8.08
2019-02-21T22:00:23.591Z,8.06
2019-02-21T22:02:52.011Z,8.05
2019-02-21T22:05:22.462Z,8.00
2019-02-21T22:07:51.229Z,7.97
2019-02-21T22:10:19.761Z,7.95
2019-02-21T22:12:48.270Z,7.91
2019-02-21T22:15:19.921Z,7.90
2019-02-21T22:17:48.405Z,7.88
2019-02-21T22:20:17.083Z,7.87
2019-02-21T22:22:45.511Z,7.85
2019-02-21T22:25:14.552Z,7.83
2019-02-21T22:27:42.991Z,7.81
2019-02-21T22:30:19.773Z,7.80
2019-02-21T22:32:48.220Z,7.80
2019-02-21T22:35:17.022Z,7.79
2019-02-21T22:37:45.491Z,7.80
2019-02-21T22:40:18.051Z,7.79
2019-02-21T22:42:46.823Z,7.79
2019-02-21T22:45:15.626Z,7.77
2019-02-21T22:47:44.319Z,7.76
2019-02-21T22:50:17.397Z,7.76
2019-02-21T22:52:45.832Z,7.75
2019-02-21T22:55:14.565Z,7.75
2019-02-21T22:57:42.977Z,7.74
2019-02-21T23:00:53.818Z,7.77
2019-02-21T23:03:23.990Z,7.78
2019-02-21T23:06:13.492Z,7.81
2019-02-21T23:08:45.259Z,7.80
2019-02-21T23:11:13.914Z,7.79
2019-02-21T23:13:42.408Z,7.77
2019-02-21T23:16:10.916Z,7.77
2019-02-21T23:18:39.603Z,7.76
2019-02-21T23:21:08.036Z,7.76
2019-02-21T23:23:36.523Z,7.77
2019-02-21T23:26:05.250Z,7.77
2019-02-21T23:28:33.672Z,7.80
2019-02-21T23:31:02.098Z,7.78
2019-02-21T23:33:32.078Z,7.79
2019-02-21T23:36:00.502Z,7.79
2019-02-21T23:38:28.914Z,7.80
2019-02-21T23:40:57.670Z,7.81
2019-02-21T23:43:26.077Z,7.81
2019-02-21T23:45:54.835Z,7.80
2019-02-21T23:48:23.532Z,7.80
2019-02-21T23:50:51.952Z,7.80
2019-02-21T23:53:20.369Z,7.80
2019-02-21T23:55:48.790Z,7.82
2019-02-21T23:58:17.228Z,7.83
